This is the latest recevied weather packets stored in our database for station/object MEGLR. If no packets are shown the sender has not sent any weather packets the latest 10 day(s).
| Time | Temp. | Humidity | Pressure | Rain* | Wind** | Luminosity | Snow |
|---|---|---|---|---|---|---|---|
| 1777785003 | 13.33° C | 88% | 0 hPa | - | - | - | - |
| 1777784403 | 13.89° C | 85% | 0 hPa | - | - | - | - |
| 1777783803 | 13.89° C | 87% | 0 hPa | - | - | - | - |
| 1777783203 | 13.33° C | 89% | 0 hPa | - | - | - | - |
| 1777782604 | 12.78° C | 90% | 0 hPa | - | - | - | - |
| 1777782002 | 12.78° C | 89% | 0 hPa | - | - | - | - |
| 1777781403 | 12.78° C | 90% | 0 hPa | - | - | - | - |
| 1777780803 | 12.78° C | 89% | 0 hPa | - | - | - | - |
| 1777780203 | 13.33° C | 88% | 0 hPa | - | - | - | - |
| 1777779603 | 13.33° C | 86% | 0 hPa | - | - | - | - |
| 1777779003 | 13.33° C | 86% | 0 hPa | - | - | - | - |
| 1777778403 | 12.78° C | 87% | 0 hPa | - | - | - | - |
| 1777777802 | 12.78° C | 91% | 0 hPa | - | - | - | - |
| 1777777203 | 12.78° C | 91% | 0 hPa | - | - | - | - |
| 1777776603 | 12.78° C | 90% | 0 hPa | - | - | - | - |
| 1777776003 | 13.33° C | 88% | 0 hPa | - | - | - | - |
| 1777775403 | 13.33° C | 86% | 0 hPa | - | - | - | - |
| 1777774804 | 14.44° C | 82% | 0 hPa | - | - | - | - |
| 1777774203 | 13.89° C | 82% | 0 hPa | - | - | - | - |
| 1777773604 | 13.89° C | 82% | 0 hPa | - | - | - | - |
| 1777773003 | 13.89° C | 80% | 0 hPa | - | - | - | - |
| 1777772403 | 14.44° C | 79% | 0 hPa | - | - | - | - |
| 1777771803 | 14.44° C | 80% | 0 hPa | - | - | - | - |
| 1777771203 | 13.89° C | 82% | 0 hPa | - | - | - | - |
| 1777770603 | 13.33° C | 86% | 0 hPa | - | - | - | - |
* Rain since midnight (hover to see other rain measurements)
** Current wind speed in m/s (hover to see current wind gust speed)